sensor_id;sensor_type;location;lat;lon;timestamp;pressure;altitude;pressure_sealevel;temperature;humidity
17309;BME280;8772;42.804;23.426;2023-05-31T00:00:18;73220.94;;;-140.58;100.00
17309;BME280;8772;42.804;23.426;2023-05-31T00:02:45;73220.94;;;-140.58;100.00
17309;BME280;8772;42.804;23.426;2023-05-31T00:05:11;73233.25;;;-140.58;100.00
17309;BME280;8772;42.804;23.426;2023-05-31T00:07:39;73231.19;;;-140.58;100.00
17309;BME280;8772;42.804;23.426;2023-05-31T00:10:06;73227.09;;;-140.58;100.00
17309;BME280;8772;42.804;23.426;2023-05-31T00:12:33;73235.31;;;-140.58;100.00
17309;BME280;8772;42.804;23.426;2023-05-31T00:15:00;73214.78;;;-140.58;100.00
17309;BME280;8772;42.804;23.426;2023-05-31T00:17:28;73229.16;;;-140.58;100.00
17309;BME280;8772;42.804;23.426;2023-05-31T00:19:55;73223.00;;;-140.58;100.00
17309;BME280;8772;42.804;23.426;2023-05-31T00:22:22;73227.09;;;-140.58;100.00
17309;BME280;8772;42.804;23.426;2023-05-31T00:24:48;73241.47;;;-140.58;100.00
17309;BME280;8772;42.804;23.426;2023-05-31T00:27:15;73235.31;;;-140.58;100.00
17309;BME280;8772;42.804;23.426;2023-05-31T00:29:42;73231.19;;;-140.58;100.00
17309;BME280;8772;42.804;23.426;2023-05-31T00:32:09;73210.69;;;-140.58;100.00
17309;BME280;8772;42.804;23.426;2023-05-31T00:34:37;73218.91;;;-140.58;100.00
17309;BME280;8772;42.804;23.426;2023-05-31T00:37:05;73233.25;;;-140.58;100.00
17309;BME280;8772;42.804;23.426;2023-05-31T00:39:31;73233.25;;;-140.58;100.00
17309;BME280;8772;42.804;23.426;2023-05-31T00:41:58;73239.41;;;-140.58;100.00
17309;BME280;8772;42.804;23.426;2023-05-31T00:44:25;73237.34;;;-140.58;100.00
17309;BME280;8772;42.804;23.426;2023-05-31T00:46:52;73227.09;;;-140.58;100.00
17309;BME280;8772;42.804;23.426;2023-05-31T00:49:19;73214.78;;;-140.58;100.00
17309;BME280;8772;42.804;23.426;2023-05-31T00:51:48;73223.00;;;-140.58;100.00
17309;BME280;8772;42.804;23.426;2023-05-31T00:54:15;73227.09;;;-140.58;100.00
17309;BME280;8772;42.804;23.426;2023-05-31T00:56:42;73227.09;;;-140.58;100.00
17309;BME280;8772;42.804;23.426;2023-05-31T00:59:09;73227.09;;;-140.58;100.00
17309;BME280;8772;42.804;23.426;2023-05-31T01:01:37;73231.19;;;-140.58;100.00
17309;BME280;8772;42.804;23.426;2023-05-31T01:07:27;73237.34;;;-140.58;100.00
17309;BME280;8772;42.804;23.426;2023-05-31T01:09:54;73247.59;;;-140.58;100.00
17309;BME280;8772;42.804;23.426;2023-05-31T01:12:27;73251.72;;;-140.58;100.00
17309;BME280;8772;42.804;23.426;2023-05-31T01:15:01;73247.59;;;-140.58;100.00
17309;BME280;8772;42.804;23.426;2023-05-31T01:17:35;73231.19;;;-140.58;100.00
17309;BME280;8772;42.804;23.426;2023-05-31T01:20:08;73239.41;;;-140.58;100.00
17309;BME280;8772;42.804;23.426;2023-05-31T01:22:45;73243.50;;;-140.58;100.00
17309;BME280;8772;42.804;23.426;2023-05-31T01:25:38;73235.31;;;-140.58;100.00
17309;BME280;8772;42.804;23.426;2023-05-31T01:28:14;73235.31;;;-140.58;100.00
17309;BME280;8772;42.804;23.426;2023-05-31T01:30:44;73231.19;;;-140.58;100.00
17309;BME280;8772;42.804;23.426;2023-05-31T01:33:12;73231.19;;;-140.58;100.00
17309;BME280;8772;42.804;23.426;2023-05-31T01:35:39;73241.47;;;-140.58;100.00
17309;BME280;8772;42.804;23.426;2023-05-31T01:38:06;73247.59;;;-140.58;100.00
17309;BME280;8772;42.804;23.426;2023-05-31T01:40:34;73253.75;;;-140.58;100.00
17309;BME280;8772;42.804;23.426;2023-05-31T01:43:02;73247.59;;;-140.58;100.00
17309;BME280;8772;42.804;23.426;2023-05-31T01:45:33;73243.50;;;-140.58;100.00
17309;BME280;8772;42.804;23.426;2023-05-31T01:48:03;73247.59;;;-140.58;100.00
17309;BME280;8772;42.804;23.426;2023-05-31T01:50:32;73243.50;;;-140.58;100.00
17309;BME280;8772;42.804;23.426;2023-05-31T01:52:59;73237.34;;;-140.58;100.00
17309;BME280;8772;42.804;23.426;2023-05-31T01:55:27;73231.19;;;-140.58;100.00
17309;BME280;8772;42.804;23.426;2023-05-31T01:57:54;73227.09;;;-140.58;100.00
17309;BME280;8772;42.804;23.426;2023-05-31T02:00:23;73239.41;;;-140.58;100.00
17309;BME280;8772;42.804;23.426;2023-05-31T02:02:51;73231.19;;;-140.58;100.00
17309;BME280;8772;42.804;23.426;2023-05-31T02:05:19;73233.25;;;-140.58;100.00
17309;BME280;8772;42.804;23.426;2023-05-31T02:07:46;73243.50;;;-140.58;100.00
17309;BME280;8772;42.804;23.426;2023-05-31T02:10:13;73257.88;;;-140.58;100.00
17309;BME280;8772;42.804;23.426;2023-05-31T02:12:40;73239.41;;;-140.58;100.00
17309;BME280;8772;42.804;23.426;2023-05-31T02:15:08;73239.41;;;-140.58;100.00
17309;BME280;8772;42.804;23.426;2023-05-31T02:17:36;73235.31;;;-140.58;100.00
17309;BME280;8772;42.804;23.426;2023-05-31T02:20:08;73247.59;;;-140.58;100.00
17309;BME280;8772;42.804;23.426;2023-05-31T02:22:36;73245.56;;;-140.58;100.00
17309;BME280;8772;42.804;23.426;2023-05-31T02:25:03;73243.50;;;-140.58;100.00
17309;BME280;8772;42.804;23.426;2023-05-31T02:27:30;73255.81;;;-140.58;100.00
17309;BME280;8772;42.804;23.426;2023-05-31T02:29:57;73259.91;;;-140.58;100.00
17309;BME280;8772;42.804;23.426;2023-05-31T02:32:24;73261.97;;;-140.58;100.00
17309;BME280;8772;42.804;23.426;2023-05-31T02:34:51;73255.81;;;-140.58;100.00
17309;BME280;8772;42.804;23.426;2023-05-31T02:37:19;73266.06;;;-140.58;100.00
17309;BME280;8772;42.804;23.426;2023-05-31T02:39:46;73259.91;;;-140.58;100.00
17309;BME280;8772;42.804;23.426;2023-05-31T02:42:14;73259.91;;;-140.58;100.00
17309;BME280;8772;42.804;23.426;2023-05-31T02:44:41;73276.31;;;-140.58;100.00
17309;BME280;8772;42.804;23.426;2023-05-31T02:47:07;73251.72;;;-140.58;100.00
17309;BME280;8772;42.804;23.426;2023-05-31T02:49:34;73251.72;;;-140.58;100.00
17309;BME280;8772;42.804;23.426;2023-05-31T02:52:02;73239.41;;;-140.58;100.00
17309;BME280;8772;42.804;23.426;2023-05-31T02:54:30;73231.19;;;-140.58;100.00
17309;BME280;8772;42.804;23.426;2023-05-31T02:56:57;73235.31;;;-140.58;100.00
17309;BME280;8772;42.804;23.426;2023-05-31T02:59:25;73243.50;;;-140.58;100.00
17309;BME280;8772;42.804;23.426;2023-05-31T03:01:52;73251.72;;;-140.58;100.00
17309;BME280;8772;42.804;23.426;2023-05-31T03:04:18;73231.19;;;-140.58;100.00
17309;BME280;8772;42.804;23.426;2023-05-31T03:06:46;73241.47;;;-140.58;100.00
17309;BME280;8772;42.804;23.426;2023-05-31T03:09:13;73239.41;;;-140.58;100.00
17309;BME280;8772;42.804;23.426;2023-05-31T03:11:43;73253.75;;;-140.58;100.00
17309;BME280;8772;42.804;23.426;2023-05-31T03:14:10;73245.56;;;-140.58;100.00
17309;BME280;8772;42.804;23.426;2023-05-31T03:16:37;73243.50;;;-140.58;100.00
17309;BME280;8772;42.804;23.426;2023-05-31T03:19:04;73239.41;;;-140.58;100.00
17309;BME280;8772;42.804;23.426;2023-05-31T03:21:31;73237.34;;;-140.58;100.00
17309;BME280;8772;42.804;23.426;2023-05-31T03:23:58;73237.34;;;-140.58;100.00
17309;BME280;8772;42.804;23.426;2023-05-31T03:26:25;73251.72;;;-140.58;100.00
17309;BME280;8772;42.804;23.426;2023-05-31T03:28:54;73231.19;;;-140.58;100.00
17309;BME280;8772;42.804;23.426;2023-05-31T03:31:20;73229.16;;;-140.58;100.00
17309;BME280;8772;42.804;23.426;2023-05-31T03:33:47;73227.09;;;-140.58;100.00
17309;BME280;8772;42.804;23.426;2023-05-31T03:36:14;73210.69;;;-140.58;100.00
17309;BME280;8772;42.804;23.426;2023-05-31T03:38:41;73214.78;;;-140.58;100.00
17309;BME280;8772;42.804;23.426;2023-05-31T03:41:08;73220.94;;;-140.58;100.00
17309;BME280;8772;42.804;23.426;2023-05-31T03:43:35;73206.59;;;-140.58;100.00
17309;BME280;8772;42.804;23.426;2023-05-31T03:46:03;73202.47;;;-140.58;100.00
17309;BME280;8772;42.804;23.426;2023-05-31T03:48:30;73206.59;;;-140.58;100.00
17309;BME280;8772;42.804;23.426;2023-05-31T03:50:57;73200.44;;;-140.58;100.00
17309;BME280;8772;42.804;23.426;2023-05-31T03:53:24;73202.47;;;-140.58;100.00
17309;BME280;8772;42.804;23.426;2023-05-31T03:55:50;73190.19;;;-140.58;100.00
17309;BME280;8772;42.804;23.426;2023-05-31T03:58:17;73198.38;;;-140.58;100.00
17309;BME280;8772;42.804;23.426;2023-05-31T04:00:44;73202.47;;;-140.58;100.00
17309;BME280;8772;42.804;23.426;2023-05-31T04:03:14;73198.38;;;-140.58;100.00
17309;BME280;8772;42.804;23.426;2023-05-31T04:05:41;73181.97;;;-140.58;100.00
17309;BME280;8772;42.804;23.426;2023-05-31T04:08:08;73210.69;;;-140.58;100.00
17309;BME280;8772;42.804;23.426;2023-05-31T04:10:34;73190.19;;;-140.58;100.00
17309;BME280;8772;42.804;23.426;2023-05-31T04:13:01;73181.97;;;-140.58;100.00
17309;BME280;8772;42.804;23.426;2023-05-31T04:15:28;73171.72;;;-140.58;100.00
17309;BME280;8772;42.804;23.426;2023-05-31T04:17:55;73181.97;;;-140.58;100.00
17309;BME280;8772;42.804;23.426;2023-05-31T04:20:23;73161.47;;;-140.58;100.00
17309;BME280;8772;42.804;23.426;2023-05-31T04:22:50;73145.06;;;-140.58;100.00
17309;BME280;8772;42.804;23.426;2023-05-31T04:25:18;73145.06;;;-140.58;100.00
17309;BME280;8772;42.804;23.426;2023-05-31T04:27:45;73132.75;;;-140.58;100.00
17309;BME280;8772;42.804;23.426;2023-05-31T04:30:13;73128.66;;;-140.58;100.00
17309;BME280;8772;42.804;23.426;2023-05-31T04:32:40;73120.44;;;-140.58;100.00
17309;BME280;8772;42.804;23.426;2023-05-31T04:35:07;73118.38;;;-140.58;100.00
17309;BME280;8772;42.804;23.426;2023-05-31T04:37:35;73108.13;;;-140.58;100.00
17309;BME280;8772;42.804;23.426;2023-05-31T04:40:03;73097.88;;;-140.58;100.00
17309;BME280;8772;42.804;23.426;2023-05-31T04:42:31;73091.72;;;-140.58;100.00
17309;BME280;8772;42.804;23.426;2023-05-31T04:44:58;73087.63;;;-140.58;100.00
17309;BME280;8772;42.804;23.426;2023-05-31T04:47:26;73073.28;;;-140.58;100.00
17309;BME280;8772;42.804;23.426;2023-05-31T04:49:54;73067.13;;;-140.58;100.00
17309;BME280;8772;42.804;23.426;2023-05-31T04:52:22;73067.13;;;-140.58;100.00
17309;BME280;8772;42.804;23.426;2023-05-31T04:54:53;73054.81;;;-140.58;100.00
17309;BME280;8772;42.804;23.426;2023-05-31T04:57:20;73038.41;;;-140.58;100.00
17309;BME280;8772;42.804;23.426;2023-05-31T04:59:47;73048.66;;;-140.58;100.00
17309;BME280;8772;42.804;23.426;2023-05-31T05:02:14;73044.56;;;-140.58;100.00
17309;BME280;8772;42.804;23.426;2023-05-31T05:04:41;73040.44;;;-140.58;100.00
17309;BME280;8772;42.804;23.426;2023-05-31T05:07:08;73030.19;;;-140.58;100.00
17309;BME280;8772;42.804;23.426;2023-05-31T05:09:35;73030.19;;;-140.58;100.00
17309;BME280;8772;42.804;23.426;2023-05-31T05:12:04;73015.84;;;-140.58;100.00
17309;BME280;8772;42.804;23.426;2023-05-31T05:14:31;72997.38;;;-140.58;100.00
17309;BME280;8772;42.804;23.426;2023-05-31T05:16:58;73003.53;;;-140.58;100.00
17309;BME280;8772;42.804;23.426;2023-05-31T05:19:25;72993.28;;;-140.58;100.00
17309;BME280;8772;42.804;23.426;2023-05-31T05:21:52;72989.19;;;-140.58;100.00
17309;BME280;8772;42.804;23.426;2023-05-31T05:24:19;72995.34;;;-140.58;100.00
17309;BME280;8772;42.804;23.426;2023-05-31T05:26:46;72987.13;;;-140.58;100.00
17309;BME280;8772;42.804;23.426;2023-05-31T05:29:14;72985.06;;;-140.58;95.67
17309;BME280;8772;42.804;23.426;2023-05-31T05:31:41;72983.03;;;-140.58;98.54
17309;BME280;8772;42.804;23.426;2023-05-31T05:34:08;72976.88;;;-140.58;94.46
17309;BME280;8772;42.804;23.426;2023-05-31T05:36:35;72972.78;;;-140.58;93.12
17309;BME280;8772;42.804;23.426;2023-05-31T05:39:03;72958.41;;;-140.58;94.11
17309;BME280;8772;42.804;23.426;2023-05-31T05:41:32;72952.25;;;-140.58;92.13
17309;BME280;8772;42.804;23.426;2023-05-31T05:43:59;72966.63;;;-140.58;92.17
17309;BME280;8772;42.804;23.426;2023-05-31T05:46:27;72956.38;;;-140.58;92.94
17309;BME280;8772;42.804;23.426;2023-05-31T05:48:54;72939.97;;;-140.58;91.25
17309;BME280;8772;42.804;23.426;2023-05-31T05:51:22;72946.09;;;-140.58;91.84
17309;BME280;8772;42.804;23.426;2023-05-31T05:53:49;72927.66;;;-140.58;93.33
17309;BME280;8772;42.804;23.426;2023-05-31T05:56:16;72907.13;;;-140.58;94.75
17309;BME280;8772;42.804;23.426;2023-05-31T05:58:44;72894.84;;;-140.58;96.97
17309;BME280;8772;42.804;23.426;2023-05-31T06:01:12;72876.38;;;-140.58;96.45
17309;BME280;8772;42.804;23.426;2023-05-31T06:03:46;72853.81;;;-140.58;95.62
17309;BME280;8772;42.804;23.426;2023-05-31T06:06:14;72843.56;;;-140.58;94.87
17309;BME280;8772;42.804;23.426;2023-05-31T06:08:42;72839.47;;;-140.58;90.89
17309;BME280;8772;42.804;23.426;2023-05-31T06:11:09;72841.50;;;-140.58;89.23
17309;BME280;8772;42.804;23.426;2023-05-31T06:13:36;72837.41;;;-140.58;88.63
17309;BME280;8772;42.804;23.426;2023-05-31T06:16:04;72821.00;;;-140.58;91.52
17309;BME280;8772;42.804;23.426;2023-05-31T06:18:33;72816.91;;;-140.58;90.39
17309;BME280;8772;42.804;23.426;2023-05-31T06:21:01;72784.09;;;-140.58;95.08
17309;BME280;8772;42.804;23.426;2023-05-31T06:23:28;72769.72;;;-140.58;96.06
17309;BME280;8772;42.804;23.426;2023-05-31T06:25:55;72757.44;;;-140.58;97.98
17309;BME280;8772;42.804;23.426;2023-05-31T06:28:22;72738.97;;;-140.58;98.35
17309;BME280;8772;42.804;23.426;2023-05-31T06:30:49;72728.72;;;-140.58;95.72
17309;BME280;8772;42.804;23.426;2023-05-31T06:33:16;72720.50;;;-140.58;91.07
17309;BME280;8772;42.804;23.426;2023-05-31T06:35:43;72704.09;;;-140.58;90.83
17309;BME280;8772;42.804;23.426;2023-05-31T06:38:11;72689.75;;;-140.58;92.11
17309;BME280;8772;42.804;23.426;2023-05-31T06:40:41;72677.44;;;-140.58;92.30
17309;BME280;8772;42.804;23.426;2023-05-31T06:43:08;72661.03;;;-140.58;89.22
17309;BME280;8772;42.804;23.426;2023-05-31T06:45:35;72669.25;;;-140.58;81.51
17309;BME280;8772;42.804;23.426;2023-05-31T06:48:04;72640.53;;;-140.58;88.32
17309;BME280;8772;42.804;23.426;2023-05-31T06:50:31;72622.06;;;-140.58;86.89
17309;BME280;8772;42.804;23.426;2023-05-31T06:52:57;72603.63;;;-140.58;84.02
17309;BME280;8772;42.804;23.426;2023-05-31T06:55:26;72591.31;;;-140.58;82.36
17309;BME280;8772;42.804;23.426;2023-05-31T06:57:53;72570.81;;;-140.58;82.82
17309;BME280;8772;42.804;23.426;2023-05-31T07:00:20;72560.56;;;-140.58;83.93
17309;BME280;8772;42.804;23.426;2023-05-31T07:02:47;72548.25;;;-140.58;78.15
17309;BME280;8772;42.804;23.426;2023-05-31T07:05:14;72558.50;;;-140.58;79.74
17309;BME280;8772;42.804;23.426;2023-05-31T07:07:40;72535.94;;;-140.58;78.20
17309;BME280;8772;42.804;23.426;2023-05-31T07:10:08;72535.94;;;-140.58;79.22
17309;BME280;8772;42.804;23.426;2023-05-31T07:12:36;72509.28;;;-140.58;77.18
17309;BME280;8772;42.804;23.426;2023-05-31T07:15:04;72505.19;;;-140.58;76.19
17309;BME280;8772;42.804;23.426;2023-05-31T07:17:31;72488.78;;;-140.58;76.97
17309;BME280;8772;42.804;23.426;2023-05-31T07:19:57;72476.47;;;-140.58;77.23
17309;BME280;8772;42.804;23.426;2023-05-31T07:22:24;72451.88;;;-140.58;75.85
17309;BME280;8772;42.804;23.426;2023-05-31T07:24:51;72443.66;;;-140.58;72.95
17309;BME280;8772;42.804;23.426;2023-05-31T07:27:18;72447.78;;;-140.58;75.25
17309;BME280;8772;42.804;23.426;2023-05-31T07:29:47;72445.72;;;-140.58;72.73
17309;BME280;8772;42.804;23.426;2023-05-31T07:32:14;72423.16;;;-140.58;71.21
17309;BME280;8772;42.804;23.426;2023-05-31T07:34:41;72410.84;;;-140.58;73.34
17309;BME280;8772;42.804;23.426;2023-05-31T07:37:08;72382.16;;;-140.58;73.18
17309;BME280;8772;42.804;23.426;2023-05-31T07:39:35;72373.94;;;-140.58;70.80
17309;BME280;8772;42.804;23.426;2023-05-31T07:42:02;72390.34;;;-140.58;68.51
17309;BME280;8772;42.804;23.426;2023-05-31T07:44:29;72363.69;;;-140.58;68.52
17309;BME280;8772;42.804;23.426;2023-05-31T07:46:57;72421.09;;;-140.58;66.34
17309;BME280;8772;42.804;23.426;2023-05-31T07:49:24;72427.25;;;-140.58;63.42
17309;BME280;8772;42.804;23.426;2023-05-31T07:51:51;72455.97;;;-140.58;65.27
17309;BME280;8772;42.804;23.426;2023-05-31T07:54:18;72443.66;;;-140.58;63.20
17309;BME280;8772;42.804;23.426;2023-05-31T07:56:45;72414.97;;;-140.58;67.89
17309;BME280;8772;42.804;23.426;2023-05-31T07:59:12;72390.34;;;-140.58;68.37
17309;BME280;8772;42.804;23.426;2023-05-31T08:01:39;72423.16;;;-140.58;64.64
17309;BME280;8772;42.804;23.426;2023-05-31T08:04:08;72398.56;;;-140.58;68.31
17309;BME280;8772;42.804;23.426;2023-05-31T08:06:35;72431.38;;;-140.58;64.38
17309;BME280;8772;42.804;23.426;2023-05-31T08:09:03;72468.28;;;-140.58;61.07
17309;BME280;8772;42.804;23.426;2023-05-31T08:11:32;72443.66;;;-140.58;67.71
17309;BME280;8772;42.804;23.426;2023-05-31T08:14:00;72410.84;;;-140.58;66.65
17309;BME280;8772;42.804;23.426;2023-05-31T08:16:28;72371.91;;;-140.58;67.94
17309;BME280;8772;42.804;23.426;2023-05-31T08:18:55;72373.94;;;-140.58;55.91
17309;BME280;8772;42.804;23.426;2023-05-31T08:21:23;72353.44;;;-140.58;61.58
17309;BME280;8772;42.804;23.426;2023-05-31T08:23:50;72394.44;;;-140.58;59.98
17309;BME280;8772;42.804;23.426;2023-05-31T08:26:17;72402.66;;;-140.58;60.01
17309;BME280;8772;42.804;23.426;2023-05-31T08:28:44;72384.19;;;-140.58;57.48
17309;BME280;8772;42.804;23.426;2023-05-31T08:31:11;72386.25;;;-140.58;59.28
17309;BME280;8772;42.804;23.426;2023-05-31T08:33:51;72361.66;;;-140.58;58.65
17309;BME280;8772;42.804;23.426;2023-05-31T08:36:18;72371.91;;;-140.58;55.16
17309;BME280;8772;42.804;23.426;2023-05-31T08:38:47;72355.50;;;-140.58;55.78
17309;BME280;8772;42.804;23.426;2023-05-31T08:41:14;72328.84;;;-140.58;57.40
17309;BME280;8772;42.804;23.426;2023-05-31T08:43:41;72320.63;;;-140.58;58.14
17309;BME280;8772;42.804;23.426;2023-05-31T08:46:08;72322.69;;;-140.58;55.89
17309;BME280;8772;42.804;23.426;2023-05-31T08:48:40;72337.03;;;-140.58;54.81
17309;BME280;8772;42.804;23.426;2023-05-31T08:51:09;72353.44;;;-140.58;54.49
17309;BME280;8772;42.804;23.426;2023-05-31T08:53:37;72343.19;;;-140.58;54.40
17309;BME280;8772;42.804;23.426;2023-05-31T08:56:06;72306.28;;;-140.58;56.04
17309;BME280;8772;42.804;23.426;2023-05-31T08:58:34;72271.41;;;-140.58;52.79
17309;BME280;8772;42.804;23.426;2023-05-31T09:01:02;72259.13;;;-140.58;53.13
17309;BME280;8772;42.804;23.426;2023-05-31T09:03:31;72222.22;;;-140.58;54.70
17309;BME280;8772;42.804;23.426;2023-05-31T09:05:58;72160.69;;;-140.58;54.04
17309;BME280;8772;42.804;23.426;2023-05-31T09:08:25;72160.69;;;-140.58;52.36
17309;BME280;8772;42.804;23.426;2023-05-31T09:10:52;72144.28;;;-140.58;50.41
17309;BME280;8772;42.804;23.426;2023-05-31T09:13:20;72119.69;;;-140.58;46.86
17309;BME280;8772;42.804;23.426;2023-05-31T09:15:48;72125.84;;;-140.58;45.80
17309;BME280;8772;42.804;23.426;2023-05-31T09:18:18;72152.50;;;-140.58;46.62
17309;BME280;8772;42.804;23.426;2023-05-31T09:20:46;72146.34;;;-140.58;47.42
17309;BME280;8772;42.804;23.426;2023-05-31T09:23:13;72132.00;;;-140.58;47.45
17309;BME280;8772;42.804;23.426;2023-05-31T09:25:44;72111.47;;;-140.58;46.81
17309;BME280;8772;42.804;23.426;2023-05-31T09:28:12;72066.38;;;-140.58;50.63
17309;BME280;8772;42.804;23.426;2023-05-31T09:30:40;72039.72;;;-140.58;49.99
17309;BME280;8772;42.804;23.426;2023-05-31T09:33:07;72033.56;;;-140.58;46.11
17309;BME280;8772;42.804;23.426;2023-05-31T09:35:34;71963.84;;;-140.58;49.88
17309;BME280;8772;42.804;23.426;2023-05-31T09:38:05;71957.69;;;-140.58;45.18
17309;BME280;8772;42.804;23.426;2023-05-31T09:40:32;71980.25;;;-140.58;43.47
17309;BME280;8772;42.804;23.426;2023-05-31T09:43:00;71988.47;;;-140.58;46.32
17309;BME280;8772;42.804;23.426;2023-05-31T09:45:27;71945.41;;;-140.58;47.47
17309;BME280;8772;42.804;23.426;2023-05-31T09:47:55;71998.72;;;-140.58;42.31
17309;BME280;8772;42.804;23.426;2023-05-31T09:50:23;72031.53;;;-140.58;43.15
17309;BME280;8772;42.804;23.426;2023-05-31T09:52:55;71965.91;;;-140.58;45.77
17309;BME280;8772;42.804;23.426;2023-05-31T09:55:23;71931.06;;;-140.58;46.02
17309;BME280;8772;42.804;23.426;2023-05-31T09:57:52;71929.00;;;-140.58;41.32
17309;BME280;8772;42.804;23.426;2023-05-31T10:00:21;71916.69;;;-140.58;41.79
17309;BME280;8772;42.804;23.426;2023-05-31T10:02:49;71914.66;;;-140.58;41.31
17309;BME280;8772;42.804;23.426;2023-05-31T10:05:19;71865.44;;;-140.58;41.89
17309;BME280;8772;42.804;23.426;2023-05-31T10:07:47;71832.63;;;-140.58;41.25
17309;BME280;8772;42.804;23.426;2023-05-31T10:10:15;71865.44;;;-140.58;40.85
17309;BME280;8772;42.804;23.426;2023-05-31T10:12:48;71869.53;;;-140.58;41.69
17309;BME280;8772;42.804;23.426;2023-05-31T10:15:18;71857.25;;;-140.58;41.60
17309;BME280;8772;42.804;23.426;2023-05-31T10:17:54;71824.44;;;-140.58;40.02
17309;BME280;8772;42.804;23.426;2023-05-31T10:20:24;71803.94;;;-140.58;40.59
17309;BME280;8772;42.804;23.426;2023-05-31T10:22:57;71787.53;;;-140.58;39.23
17309;BME280;8772;42.804;23.426;2023-05-31T10:25:31;71795.72;;;-140.58;39.36
17309;BME280;8772;42.804;23.426;2023-05-31T10:28:07;71748.56;;;-140.58;41.72
17309;BME280;8772;42.804;23.426;2023-05-31T10:30:38;71742.44;;;-140.58;40.87
17309;BME280;8772;42.804;23.426;2023-05-31T10:33:07;71756.78;;;-140.58;37.90
17309;BME280;8772;42.804;23.426;2023-05-31T10:35:39;71795.72;;;-140.58;38.70
17309;BME280;8772;42.804;23.426;2023-05-31T10:38:06;71775.22;;;-140.58;39.17
17309;BME280;8772;42.804;23.426;2023-05-31T10:40:39;71750.63;;;-140.58;40.57
17309;BME280;8772;42.804;23.426;2023-05-31T10:43:13;71773.19;;;-140.58;37.15
17309;BME280;8772;42.804;23.426;2023-05-31T10:45:46;71814.19;;;-140.58;39.07
17309;BME280;8772;42.804;23.426;2023-05-31T10:48:18;71865.44;;;-140.58;39.84
17309;BME280;8772;42.804;23.426;2023-05-31T10:50:55;71814.19;;;-140.58;39.23
17309;BME280;8772;42.804;23.426;2023-05-31T10:53:27;71877.75;;;-140.58;38.80
17309;BME280;8772;42.804;23.426;2023-05-31T10:56:01;71783.44;;;-140.58;42.40
17309;BME280;8772;42.804;23.426;2023-05-31T10:58:29;71779.31;;;-140.58;40.48
17309;BME280;8772;42.804;23.426;2023-05-31T11:00:58;71746.53;;;-140.58;41.52
17309;BME280;8772;42.804;23.426;2023-05-31T11:03:28;71799.84;;;-140.58;37.29
17309;BME280;8772;42.804;23.426;2023-05-31T11:06:00;71879.78;;;-140.58;37.84
17309;BME280;8772;42.804;23.426;2023-05-31T11:08:27;71871.59;;;-140.58;38.42
17309;BME280;8772;42.804;23.426;2023-05-31T11:13:58;71847.00;;;-140.58;37.19
17309;BME280;8772;42.804;23.426;2023-05-31T11:16:26;71791.63;;;-140.58;41.20
17309;BME280;8772;42.804;23.426;2023-05-31T11:19:04;71748.56;;;-140.58;39.15
17309;BME280;8772;42.804;23.426;2023-05-31T11:21:49;71760.88;;;-140.58;39.72
17309;BME280;8772;42.804;23.426;2023-05-31T11:24:29;71775.22;;;-140.58;38.63
17309;BME280;8772;42.804;23.426;2023-05-31T11:26:57;71822.38;;;-140.58;37.22
17309;BME280;8772;42.804;23.426;2023-05-31T11:29:25;71863.38;;;-140.58;40.56
17309;BME280;8772;42.804;23.426;2023-05-31T11:32:13;71861.34;;;-140.58;38.31
17309;BME280;8772;42.804;23.426;2023-05-31T11:34:48;71881.84;;;-140.58;38.93
17309;BME280;8772;42.804;23.426;2023-05-31T11:37:17;71844.94;;;-140.58;41.76
17309;BME280;8772;42.804;23.426;2023-05-31T11:39:45;71791.63;;;-140.58;41.49
17309;BME280;8772;42.804;23.426;2023-05-31T11:42:12;71773.19;;;-140.58;40.49
17309;BME280;8772;42.804;23.426;2023-05-31T11:44:42;71775.22;;;-140.58;39.48
17309;BME280;8772;42.804;23.426;2023-05-31T11:47:10;71814.19;;;-140.58;39.70
17309;BME280;8772;42.804;23.426;2023-05-31T11:49:39;71818.28;;;-140.58;41.12
17309;BME280;8772;42.804;23.426;2023-05-31T11:52:06;71875.69;;;-140.58;39.72
17309;BME280;8772;42.804;23.426;2023-05-31T11:54:34;71894.16;;;-140.58;41.12
17309;BME280;8772;42.804;23.426;2023-05-31T11:57:03;71859.28;;;-140.58;42.14
17309;BME280;8772;42.804;23.426;2023-05-31T11:59:32;71939.25;;;-140.58;41.99
17309;BME280;8772;42.804;23.426;2023-05-31T12:02:00;71967.97;;;-140.58;42.64
17309;BME280;8772;42.804;23.426;2023-05-31T12:04:31;71972.06;;;-140.58;41.82
17309;BME280;8772;42.804;23.426;2023-05-31T12:06:59;71980.25;;;-140.58;42.97
17309;BME280;8772;42.804;23.426;2023-05-31T12:09:26;71974.09;;;-140.58;42.83
17309;BME280;8772;42.804;23.426;2023-05-31T12:11:54;71963.84;;;-140.58;44.03
17309;BME280;8772;42.804;23.426;2023-05-31T12:14:23;71926.94;;;-140.58;43.18
17309;BME280;8772;42.804;23.426;2023-05-31T12:16:50;71972.06;;;-140.58;42.59
17309;BME280;8772;42.804;23.426;2023-05-31T12:19:17;72000.75;;;-140.58;42.37
17309;BME280;8772;42.804;23.426;2023-05-31T12:21:44;71961.81;;;-140.58;43.77
17309;BME280;8772;42.804;23.426;2023-05-31T12:24:12;71972.06;;;-140.58;42.74
17309;BME280;8772;42.804;23.426;2023-05-31T12:26:39;71947.44;;;-140.58;43.75
17309;BME280;8772;42.804;23.426;2023-05-31T12:29:08;71988.47;;;-140.58;42.34
17309;BME280;8772;42.804;23.426;2023-05-31T12:31:36;71972.06;;;-140.58;43.22
17309;BME280;8772;42.804;23.426;2023-05-31T12:34:08;72004.88;;;-140.58;42.27
17309;BME280;8772;42.804;23.426;2023-05-31T12:36:42;72004.88;;;-140.58;43.13
17309;BME280;8772;42.804;23.426;2023-05-31T12:39:10;72025.38;;;-140.58;42.34
17309;BME280;8772;42.804;23.426;2023-05-31T12:41:41;72047.91;;;-140.58;42.82
17309;BME280;8772;42.804;23.426;2023-05-31T12:44:10;72066.38;;;-140.58;44.73
17309;BME280;8772;42.804;23.426;2023-05-31T12:46:39;72066.38;;;-140.58;43.56